sensor_id;sensor_type;location;lat;lon;timestamp;P1;durP1;ratioP1;P2;durP2;ratioP2
8958;SDS011;4514;49.476;8.484;2022-08-05T00:01:59;14.73;;;3.60;;
8958;SDS011;4514;49.476;8.484;2022-08-05T00:04:24;13.68;;;3.67;;
8958;SDS011;4514;49.476;8.484;2022-08-05T00:06:49;9.50;;;3.10;;
8958;SDS011;4514;49.476;8.484;2022-08-05T00:09:17;13.57;;;3.35;;
8958;SDS011;4514;49.476;8.484;2022-08-05T00:11:44;11.75;;;4.03;;
8958;SDS011;4514;49.476;8.484;2022-08-05T00:14:10;16.02;;;4.32;;
8958;SDS011;4514;49.476;8.484;2022-08-05T00:16:37;18.25;;;3.90;;
8958;SDS011;4514;49.476;8.484;2022-08-05T00:19:03;12.07;;;3.75;;
8958;SDS011;4514;49.476;8.484;2022-08-05T00:21:29;12.75;;;3.88;;
8958;SDS011;4514;49.476;8.484;2022-08-05T00:23:54;10.45;;;4.20;;
8958;SDS011;4514;49.476;8.484;2022-08-05T00:26:19;10.85;;;4.07;;
8958;SDS011;4514;49.476;8.484;2022-08-05T00:28:45;17.23;;;4.30;;
8958;SDS011;4514;49.476;8.484;2022-08-05T00:31:13;10.88;;;4.00;;
8958;SDS011;4514;49.476;8.484;2022-08-05T00:33:38;12.98;;;4.50;;
8958;SDS011;4514;49.476;8.484;2022-08-05T00:36:06;12.68;;;4.45;;
8958;SDS011;4514;49.476;8.484;2022-08-05T00:38:34;9.65;;;4.63;;
8958;SDS011;4514;49.476;8.484;2022-08-05T00:41:02;10.80;;;5.00;;
8958;SDS011;4514;49.476;8.484;2022-08-05T00:43:30;8.77;;;5.10;;
8958;SDS011;4514;49.476;8.484;2022-08-05T00:45:58;9.60;;;4.57;;
8958;SDS011;4514;49.476;8.484;2022-08-05T00:48:23;9.20;;;5.25;;
8958;SDS011;4514;49.476;8.484;2022-08-05T00:50:49;9.15;;;5.40;;
8958;SDS011;4514;49.476;8.484;2022-08-05T00:53:19;8.60;;;5.32;;
8958;SDS011;4514;49.476;8.484;2022-08-05T00:55:48;11.15;;;5.20;;
8958;SDS011;4514;49.476;8.484;2022-08-05T00:58:14;12.90;;;5.88;;
8958;SDS011;4514;49.476;8.484;2022-08-05T01:00:45;11.77;;;5.50;;
8958;SDS011;4514;49.476;8.484;2022-08-05T01:03:11;10.93;;;5.97;;
8958;SDS011;4514;49.476;8.484;2022-08-05T01:05:39;6.65;;;5.63;;
8958;SDS011;4514;49.476;8.484;2022-08-05T01:08:07;8.23;;;4.93;;
8958;SDS011;4514;49.476;8.484;2022-08-05T01:10:37;9.75;;;5.32;;
8958;SDS011;4514;49.476;8.484;2022-08-05T01:13:12;8.05;;;4.80;;
8958;SDS011;4514;49.476;8.484;2022-08-05T01:15:42;9.93;;;4.75;;
8958;SDS011;4514;49.476;8.484;2022-08-05T01:18:12;12.02;;;4.93;;
8958;SDS011;4514;49.476;8.484;2022-08-05T01:26:34;8.07;;;4.50;;
8958;SDS011;4514;49.476;8.484;2022-08-05T01:29:07;7.05;;;4.35;;
8958;SDS011;4514;49.476;8.484;2022-08-05T01:31:42;6.97;;;4.20;;
8958;SDS011;4514;49.476;8.484;2022-08-05T01:34:11;5.57;;;4.20;;
8958;SDS011;4514;49.476;8.484;2022-08-05T01:36:48;6.25;;;4.43;;
8958;SDS011;4514;49.476;8.484;2022-08-05T01:39:22;7.75;;;4.57;;
8958;SDS011;4514;49.476;8.484;2022-08-05T01:41:53;6.38;;;4.40;;
8958;SDS011;4514;49.476;8.484;2022-08-05T01:44:20;6.78;;;4.70;;
8958;SDS011;4514;49.476;8.484;2022-08-05T01:46:48;5.60;;;4.82;;
8958;SDS011;4514;49.476;8.484;2022-08-05T01:49:18;9.73;;;5.00;;
8958;SDS011;4514;49.476;8.484;2022-08-05T01:51:45;9.43;;;4.93;;
8958;SDS011;4514;49.476;8.484;2022-08-05T01:54:11;9.40;;;4.90;;
8958;SDS011;4514;49.476;8.484;2022-08-05T01:56:38;6.68;;;4.90;;
8958;SDS011;4514;49.476;8.484;2022-08-05T01:59:06;6.47;;;4.50;;
8958;SDS011;4514;49.476;8.484;2022-08-05T02:01:33;7.63;;;4.90;;
8958;SDS011;4514;49.476;8.484;2022-08-05T02:03:59;8.35;;;4.70;;
8958;SDS011;4514;49.476;8.484;2022-08-05T02:06:25;7.18;;;4.82;;
8958;SDS011;4514;49.476;8.484;2022-08-05T02:08:51;7.90;;;4.90;;
8958;SDS011;4514;49.476;8.484;2022-08-05T02:11:16;7.28;;;4.97;;
8958;SDS011;4514;49.476;8.484;2022-08-05T02:16:21;9.32;;;5.10;;
8958;SDS011;4514;49.476;8.484;2022-08-05T02:19:29;5.82;;;5.07;;
8958;SDS011;4514;49.476;8.484;2022-08-05T02:21:51;9.10;;;4.82;;
8958;SDS011;4514;49.476;8.484;2022-08-05T02:24:37;9.05;;;5.05;;
8958;SDS011;4514;49.476;8.484;2022-08-05T02:27:04;6.03;;;4.97;;
8958;SDS011;4514;49.476;8.484;2022-08-05T02:29:31;10.27;;;5.03;;
8958;SDS011;4514;49.476;8.484;2022-08-05T02:31:58;8.55;;;5.07;;
8958;SDS011;4514;49.476;8.484;2022-08-05T02:34:30;7.43;;;4.88;;
8958;SDS011;4514;49.476;8.484;2022-08-05T02:37:03;6.43;;;4.60;;
8958;SDS011;4514;49.476;8.484;2022-08-05T02:39:30;9.70;;;5.60;;
8958;SDS011;4514;49.476;8.484;2022-08-05T02:42:07;9.02;;;5.40;;
8958;SDS011;4514;49.476;8.484;2022-08-05T02:44:34;10.30;;;5.00;;
8958;SDS011;4514;49.476;8.484;2022-08-05T02:47:04;10.73;;;4.72;;
8958;SDS011;4514;49.476;8.484;2022-08-05T02:49:37;7.53;;;4.63;;
8958;SDS011;4514;49.476;8.484;2022-08-05T02:52:07;8.52;;;4.80;;
8958;SDS011;4514;49.476;8.484;2022-08-05T02:54:36;5.50;;;4.70;;
8958;SDS011;4514;49.476;8.484;2022-08-05T02:57:07;8.40;;;4.88;;
8958;SDS011;4514;49.476;8.484;2022-08-05T02:59:36;9.55;;;5.20;;
8958;SDS011;4514;49.476;8.484;2022-08-05T03:02:02;7.15;;;4.75;;
8958;SDS011;4514;49.476;8.484;2022-08-05T03:04:30;6.80;;;4.93;;
8958;SDS011;4514;49.476;8.484;2022-08-05T03:07:03;6.00;;;4.75;;
8958;SDS011;4514;49.476;8.484;2022-08-05T03:09:31;8.05;;;4.85;;
8958;SDS011;4514;49.476;8.484;2022-08-05T03:11:56;10.70;;;5.00;;
8958;SDS011;4514;49.476;8.484;2022-08-05T03:14:24;7.20;;;4.60;;
8958;SDS011;4514;49.476;8.484;2022-08-05T03:16:49;7.65;;;5.22;;
8958;SDS011;4514;49.476;8.484;2022-08-05T03:19:17;7.22;;;5.30;;
8958;SDS011;4514;49.476;8.484;2022-08-05T03:21:47;7.20;;;5.65;;
8958;SDS011;4514;49.476;8.484;2022-08-05T03:24:12;10.00;;;5.63;;
8958;SDS011;4514;49.476;8.484;2022-08-05T03:26:40;6.95;;;5.35;;
8958;SDS011;4514;49.476;8.484;2022-08-05T03:29:08;7.82;;;5.55;;
8958;SDS011;4514;49.476;8.484;2022-08-05T03:31:36;9.82;;;5.53;;
8958;SDS011;4514;49.476;8.484;2022-08-05T03:34:08;5.85;;;5.22;;
8958;SDS011;4514;49.476;8.484;2022-08-05T03:36:34;11.02;;;5.20;;
8958;SDS011;4514;49.476;8.484;2022-08-05T03:39:04;8.48;;;5.40;;
8958;SDS011;4514;49.476;8.484;2022-08-05T03:41:31;7.63;;;5.78;;
8958;SDS011;4514;49.476;8.484;2022-08-05T03:43:59;9.50;;;5.50;;
8958;SDS011;4514;49.476;8.484;2022-08-05T03:46:29;7.63;;;5.20;;
8958;SDS011;4514;49.476;8.484;2022-08-05T03:48:57;8.90;;;5.30;;
8958;SDS011;4514;49.476;8.484;2022-08-05T03:51:27;7.00;;;5.10;;
8958;SDS011;4514;49.476;8.484;2022-08-05T03:53:56;5.63;;;5.00;;
8958;SDS011;4514;49.476;8.484;2022-08-05T03:56:32;6.63;;;3.83;;
8958;SDS011;4514;49.476;8.484;2022-08-05T03:59:03;3.88;;;3.50;;
8958;SDS011;4514;49.476;8.484;2022-08-05T04:01:31;5.80;;;3.25;;
8958;SDS011;4514;49.476;8.484;2022-08-05T04:04:03;8.00;;;3.55;;
8958;SDS011;4514;49.476;8.484;2022-08-05T04:06:29;3.17;;;2.97;;
8958;SDS011;4514;49.476;8.484;2022-08-05T04:08:55;3.05;;;2.78;;
8958;SDS011;4514;49.476;8.484;2022-08-05T04:11:26;3.72;;;3.08;;
8958;SDS011;4514;49.476;8.484;2022-08-05T04:13:51;4.13;;;3.00;;
8958;SDS011;4514;49.476;8.484;2022-08-05T04:16:17;4.78;;;3.50;;
8958;SDS011;4514;49.476;8.484;2022-08-05T04:18:43;5.68;;;3.10;;
8958;SDS011;4514;49.476;8.484;2022-08-05T04:21:10;5.13;;;3.10;;
8958;SDS011;4514;49.476;8.484;2022-08-05T04:23:36;5.22;;;3.08;;
8958;SDS011;4514;49.476;8.484;2022-08-05T04:26:04;5.75;;;3.08;;
8958;SDS011;4514;49.476;8.484;2022-08-05T04:28:30;3.00;;;2.78;;
8958;SDS011;4514;49.476;8.484;2022-08-05T04:30:56;4.07;;;3.05;;
8958;SDS011;4514;49.476;8.484;2022-08-05T04:33:25;4.72;;;3.10;;
8958;SDS011;4514;49.476;8.484;2022-08-05T04:35:53;4.53;;;3.05;;
8958;SDS011;4514;49.476;8.484;2022-08-05T04:38:18;4.15;;;2.97;;
8958;SDS011;4514;49.476;8.484;2022-08-05T04:40:44;5.72;;;3.17;;
8958;SDS011;4514;49.476;8.484;2022-08-05T04:43:14;4.90;;;3.50;;
8958;SDS011;4514;49.476;8.484;2022-08-05T04:45:41;3.50;;;3.17;;
8958;SDS011;4514;49.476;8.484;2022-08-05T04:48:10;3.20;;;2.90;;
8958;SDS011;4514;49.476;8.484;2022-08-05T04:50:37;4.10;;;2.97;;
8958;SDS011;4514;49.476;8.484;2022-08-05T04:53:10;2.97;;;2.72;;
8958;SDS011;4514;49.476;8.484;2022-08-05T04:55:38;6.10;;;2.97;;
8958;SDS011;4514;49.476;8.484;2022-08-05T04:58:09;4.10;;;3.03;;
8958;SDS011;4514;49.476;8.484;2022-08-05T05:00:39;4.88;;;3.00;;
8958;SDS011;4514;49.476;8.484;2022-08-05T05:03:05;6.40;;;3.20;;
8958;SDS011;4514;49.476;8.484;2022-08-05T05:05:34;4.38;;;3.40;;
8958;SDS011;4514;49.476;8.484;2022-08-05T05:08:07;6.03;;;3.40;;
8958;SDS011;4514;49.476;8.484;2022-08-05T05:10:41;5.90;;;3.30;;
8958;SDS011;4514;49.476;8.484;2022-08-05T05:13:08;6.32;;;3.38;;
8958;SDS011;4514;49.476;8.484;2022-08-05T05:15:37;4.07;;;3.38;;
8958;SDS011;4514;49.476;8.484;2022-08-05T05:18:02;3.40;;;2.95;;
8958;SDS011;4514;49.476;8.484;2022-08-05T05:20:31;5.75;;;3.25;;
8958;SDS011;4514;49.476;8.484;2022-08-05T05:22:57;6.47;;;3.15;;
8958;SDS011;4514;49.476;8.484;2022-08-05T05:25:26;4.40;;;3.28;;
8958;SDS011;4514;49.476;8.484;2022-08-05T05:27:51;5.57;;;3.47;;
8958;SDS011;4514;49.476;8.484;2022-08-05T05:30:20;7.47;;;3.35;;
8958;SDS011;4514;49.476;8.484;2022-08-05T05:32:48;3.88;;;3.20;;
8958;SDS011;4514;49.476;8.484;2022-08-05T05:35:14;6.30;;;3.33;;
8958;SDS011;4514;49.476;8.484;2022-08-05T05:37:54;4.68;;;3.30;;
8958;SDS011;4514;49.476;8.484;2022-08-05T05:40:24;3.28;;;2.97;;
8958;SDS011;4514;49.476;8.484;2022-08-05T05:42:52;3.45;;;2.95;;
8958;SDS011;4514;49.476;8.484;2022-08-05T05:45:18;4.50;;;3.10;;
8958;SDS011;4514;49.476;8.484;2022-08-05T05:47:47;5.43;;;3.30;;
8958;SDS011;4514;49.476;8.484;2022-08-05T05:50:17;3.85;;;3.05;;
8958;SDS011;4514;49.476;8.484;2022-08-05T05:52:43;4.30;;;3.03;;
8958;SDS011;4514;49.476;8.484;2022-08-05T05:55:13;5.40;;;2.88;;
8958;SDS011;4514;49.476;8.484;2022-08-05T05:57:41;4.40;;;3.03;;
8958;SDS011;4514;49.476;8.484;2022-08-05T06:00:13;4.28;;;3.30;;
8958;SDS011;4514;49.476;8.484;2022-08-05T06:02:42;4.97;;;3.30;;
8958;SDS011;4514;49.476;8.484;2022-08-05T06:05:09;4.70;;;3.33;;
8958;SDS011;4514;49.476;8.484;2022-08-05T06:07:38;3.97;;;3.10;;
8958;SDS011;4514;49.476;8.484;2022-08-05T06:10:06;3.25;;;2.90;;
8958;SDS011;4514;49.476;8.484;2022-08-05T06:12:33;4.15;;;3.03;;
8958;SDS011;4514;49.476;8.484;2022-08-05T06:15:00;5.40;;;3.05;;
8958;SDS011;4514;49.476;8.484;2022-08-05T06:17:26;3.72;;;3.35;;
8958;SDS011;4514;49.476;8.484;2022-08-05T06:19:51;4.28;;;3.30;;
8958;SDS011;4514;49.476;8.484;2022-08-05T06:22:24;7.45;;;3.72;;
8958;SDS011;4514;49.476;8.484;2022-08-05T06:24:50;7.40;;;3.72;;
8958;SDS011;4514;49.476;8.484;2022-08-05T06:27:15;5.50;;;3.00;;
8958;SDS011;4514;49.476;8.484;2022-08-05T06:29:41;4.60;;;2.90;;
8958;SDS011;4514;49.476;8.484;2022-08-05T06:32:09;4.35;;;3.10;;
8958;SDS011;4514;49.476;8.484;2022-08-05T06:34:35;4.07;;;3.33;;
8958;SDS011;4514;49.476;8.484;2022-08-05T06:37:00;5.03;;;3.42;;
8958;SDS011;4514;49.476;8.484;2022-08-05T06:39:25;5.20;;;3.30;;
8958;SDS011;4514;49.476;8.484;2022-08-05T06:42:00;3.25;;;2.90;;
8958;SDS011;4514;49.476;8.484;2022-08-05T06:44:28;3.40;;;3.10;;
8958;SDS011;4514;49.476;8.484;2022-08-05T06:46:54;3.60;;;3.30;;
8958;SDS011;4514;49.476;8.484;2022-08-05T06:49:20;5.72;;;3.75;;
8958;SDS011;4514;49.476;8.484;2022-08-05T06:51:48;4.38;;;3.65;;
8958;SDS011;4514;49.476;8.484;2022-08-05T06:54:18;7.07;;;4.20;;
8958;SDS011;4514;49.476;8.484;2022-08-05T06:56:43;5.72;;;3.83;;
8958;SDS011;4514;49.476;8.484;2022-08-05T06:59:11;3.97;;;3.28;;
8958;SDS011;4514;49.476;8.484;2022-08-05T07:01:38;4.57;;;3.08;;
8958;SDS011;4514;49.476;8.484;2022-08-05T07:04:09;6.00;;;3.08;;
8958;SDS011;4514;49.476;8.484;2022-08-05T07:06:34;4.60;;;2.95;;
8958;SDS011;4514;49.476;8.484;2022-08-05T07:09:03;3.20;;;2.60;;
8958;SDS011;4514;49.476;8.484;2022-08-05T07:11:29;2.65;;;2.45;;
8958;SDS011;4514;49.476;8.484;2022-08-05T07:13:55;4.15;;;2.83;;
8958;SDS011;4514;49.476;8.484;2022-08-05T07:16:40;5.60;;;2.85;;
8958;SDS011;4514;49.476;8.484;2022-08-05T07:19:18;2.80;;;2.60;;
8958;SDS011;4514;49.476;8.484;2022-08-05T07:21:45;4.70;;;2.40;;
8958;SDS011;4514;49.476;8.484;2022-08-05T07:24:11;4.22;;;2.40;;
8958;SDS011;4514;49.476;8.484;2022-08-05T07:26:42;3.10;;;2.60;;
8958;SDS011;4514;49.476;8.484;2022-08-05T07:29:08;4.45;;;2.78;;
8958;SDS011;4514;49.476;8.484;2022-08-05T07:31:34;6.50;;;3.03;;
8958;SDS011;4514;49.476;8.484;2022-08-05T07:34:02;5.65;;;2.90;;
8958;SDS011;4514;49.476;8.484;2022-08-05T07:36:28;3.63;;;2.67;;
8958;SDS011;4514;49.476;8.484;2022-08-05T07:38:54;5.13;;;2.80;;
8958;SDS011;4514;49.476;8.484;2022-08-05T07:41:24;2.88;;;2.40;;
8958;SDS011;4514;49.476;8.484;2022-08-05T07:43:52;4.68;;;2.63;;
8958;SDS011;4514;49.476;8.484;2022-08-05T07:46:21;2.97;;;2.58;;
8958;SDS011;4514;49.476;8.484;2022-08-05T07:48:49;6.50;;;2.80;;
8958;SDS011;4514;49.476;8.484;2022-08-05T07:51:14;2.60;;;2.22;;
8958;SDS011;4514;49.476;8.484;2022-08-05T07:53:44;2.55;;;2.30;;
8958;SDS011;4514;49.476;8.484;2022-08-05T07:56:10;3.90;;;2.70;;
8958;SDS011;4514;49.476;8.484;2022-08-05T07:58:35;5.60;;;2.40;;
8958;SDS011;4514;49.476;8.484;2022-08-05T08:01:00;4.47;;;2.78;;
8958;SDS011;4514;49.476;8.484;2022-08-05T08:03:26;2.42;;;2.20;;
8958;SDS011;4514;49.476;8.484;2022-08-05T08:05:51;4.15;;;2.30;;
8958;SDS011;4514;49.476;8.484;2022-08-05T08:08:17;3.13;;;2.50;;
8958;SDS011;4514;49.476;8.484;2022-08-05T08:10:45;4.07;;;2.70;;
8958;SDS011;4514;49.476;8.484;2022-08-05T08:13:10;3.95;;;2.20;;
8958;SDS011;4514;49.476;8.484;2022-08-05T08:15:36;3.90;;;2.35;;
8958;SDS011;4514;49.476;8.484;2022-08-05T08:18:03;2.70;;;2.50;;
8958;SDS011;4514;49.476;8.484;2022-08-05T08:20:36;3.85;;;3.55;;
8958;SDS011;4514;49.476;8.484;2022-08-05T08:23:04;4.90;;;3.33;;
8958;SDS011;4514;49.476;8.484;2022-08-05T08:25:33;3.38;;;2.30;;
8958;SDS011;4514;49.476;8.484;2022-08-05T08:28:01;2.63;;;2.30;;
8958;SDS011;4514;49.476;8.484;2022-08-05T08:30:26;2.05;;;1.95;;
8958;SDS011;4514;49.476;8.484;2022-08-05T08:32:52;2.63;;;2.10;;
8958;SDS011;4514;49.476;8.484;2022-08-05T08:35:22;3.35;;;2.00;;
8958;SDS011;4514;49.476;8.484;2022-08-05T08:37:47;5.93;;;2.40;;
8958;SDS011;4514;49.476;8.484;2022-08-05T08:40:13;5.10;;;2.30;;
8958;SDS011;4514;49.476;8.484;2022-08-05T08:42:41;2.53;;;2.30;;
8958;SDS011;4514;49.476;8.484;2022-08-05T08:45:14;2.20;;;1.80;;
8958;SDS011;4514;49.476;8.484;2022-08-05T08:47:43;2.53;;;1.90;;
8958;SDS011;4514;49.476;8.484;2022-08-05T08:50:14;5.93;;;2.40;;
8958;SDS011;4514;49.476;8.484;2022-08-05T08:52:44;4.10;;;2.38;;
8958;SDS011;4514;49.476;8.484;2022-08-05T08:55:11;3.75;;;2.45;;
8958;SDS011;4514;49.476;8.484;2022-08-05T08:57:37;3.78;;;2.78;;
8958;SDS011;4514;49.476;8.484;2022-08-05T09:00:02;3.70;;;2.60;;
8958;SDS011;4514;49.476;8.484;2022-08-05T09:02:29;4.20;;;2.90;;
8958;SDS011;4514;49.476;8.484;2022-08-05T09:04:57;4.68;;;2.40;;
8958;SDS011;4514;49.476;8.484;2022-08-05T09:07:25;6.18;;;2.72;;
8958;SDS011;4514;49.476;8.484;2022-08-05T09:09:51;11.27;;;10.27;;
8958;SDS011;4514;49.476;8.484;2022-08-05T09:12:16;3.97;;;2.95;;
8958;SDS011;4514;49.476;8.484;2022-08-05T09:14:41;7.38;;;3.08;;
8958;SDS011;4514;49.476;8.484;2022-08-05T09:17:09;5.68;;;2.83;;
8958;SDS011;4514;49.476;8.484;2022-08-05T09:19:40;2.70;;;2.45;;
8958;SDS011;4514;49.476;8.484;2022-08-05T09:22:06;2.65;;;2.45;;
8958;SDS011;4514;49.476;8.484;2022-08-05T09:24:34;3.22;;;2.40;;
8958;SDS011;4514;49.476;8.484;2022-08-05T09:26:59;2.50;;;2.30;;
8958;SDS011;4514;49.476;8.484;2022-08-05T09:29:41;2.45;;;2.25;;
8958;SDS011;4514;49.476;8.484;2022-08-05T09:32:12;2.20;;;2.00;;
8958;SDS011;4514;49.476;8.484;2022-08-05T09:34:54;4.13;;;2.30;;
8958;SDS011;4514;49.476;8.484;2022-08-05T09:37:23;2.00;;;1.90;;
8958;SDS011;4514;49.476;8.484;2022-08-05T09:39:51;2.20;;;2.00;;
8958;SDS011;4514;49.476;8.484;2022-08-05T09:42:17;2.45;;;2.20;;
8958;SDS011;4514;49.476;8.484;2022-08-05T09:44:50;3.58;;;2.08;;
8958;SDS011;4514;49.476;8.484;2022-08-05T09:47:19;2.95;;;2.10;;
8958;SDS011;4514;49.476;8.484;2022-08-05T09:49:54;2.30;;;2.10;;
8958;SDS011;4514;49.476;8.484;2022-08-05T09:57:32;2.47;;;2.30;;
8958;SDS011;4514;49.476;8.484;2022-08-05T10:05:08;2.47;;;2.28;;
8958;SDS011;4514;49.476;8.484;2022-08-05T10:07:45;2.47;;;2.28;;
8958;SDS011;4514;49.476;8.484;2022-08-05T10:10:14;2.63;;;2.40;;
8958;SDS011;4514;49.476;8.484;2022-08-05T10:12:48;9.45;;;8.68;;
8958;SDS011;4514;49.476;8.484;2022-08-05T10:18:04;2.40;;;2.20;;
8958;SDS011;4514;49.476;8.484;2022-08-05T10:20:30;2.90;;;2.70;;
8958;SDS011;4514;49.476;8.484;2022-08-05T10:22:57;2.80;;;2.50;;
8958;SDS011;4514;49.476;8.484;2022-08-05T10:25:22;3.65;;;2.40;;
8958;SDS011;4514;49.476;8.484;2022-08-05T10:27:48;3.17;;;2.50;;
8958;SDS011;4514;49.476;8.484;2022-08-05T10:30:16;3.95;;;2.90;;
8958;SDS011;4514;49.476;8.484;2022-08-05T10:32:44;2.47;;;2.28;;
8958;SDS011;4514;49.476;8.484;2022-08-05T10:35:10;2.72;;;2.50;;
8958;SDS011;4514;49.476;8.484;2022-08-05T10:37:35;2.80;;;2.60;;
8958;SDS011;4514;49.476;8.484;2022-08-05T10:40:03;2.78;;;2.58;;
8958;SDS011;4514;49.476;8.484;2022-08-05T10:42:30;5.07;;;2.90;;
8958;SDS011;4514;49.476;8.484;2022-08-05T10:45:01;3.03;;;2.70;;
8958;SDS011;4514;49.476;8.484;2022-08-05T10:47:33;4.53;;;2.55;;
8958;SDS011;4514;49.476;8.484;2022-08-05T10:50:08;3.17;;;2.67;;
8958;SDS011;4514;49.476;8.484;2022-08-05T10:55:21;3.05;;;2.75;;
8958;SDS011;4514;49.476;8.484;2022-08-05T10:57:47;3.10;;;2.90;;
8958;SDS011;4514;49.476;8.484;2022-08-05T11:00:17;3.08;;;2.63;;
8958;SDS011;4514;49.476;8.484;2022-08-05T11:05:25;4.75;;;4.35;;
8958;SDS011;4514;49.476;8.484;2022-08-05T11:10:25;3.15;;;2.85;;
8958;SDS011;4514;49.476;8.484;2022-08-05T11:12:54;5.22;;;4.45;;
8958;SDS011;4514;49.476;8.484;2022-08-05T11:25:59;3.40;;;3.10;;
8958;SDS011;4514;49.476;8.484;2022-08-05T11:35:51;3.83;;;3.20;;
8958;SDS011;4514;49.476;8.484;2022-08-05T11:39:06;3.50;;;3.20;;
8958;SDS011;4514;49.476;8.484;2022-08-05T11:41:06;3.35;;;3.05;;
8958;SDS011;4514;49.476;8.484;2022-08-05T11:43:40;4.00;;;3.60;;
8958;SDS011;4514;49.476;8.484;2022-08-05T11:48:56;4.65;;;3.40;;
8958;SDS011;4514;49.476;8.484;2022-08-05T11:51:22;3.40;;;3.10;;
8958;SDS011;4514;49.476;8.484;2022-08-05T11:53:51;7.20;;;6.15;;
8958;SDS011;4514;49.476;8.484;2022-08-05T11:56:17;5.57;;;5.13;;
8958;SDS011;4514;49.476;8.484;2022-08-05T11:58:43;3.90;;;3.45;;
8958;SDS011;4514;49.476;8.484;2022-08-05T12:01:14;3.35;;;3.00;;
8958;SDS011;4514;49.476;8.484;2022-08-05T12:03:41;4.43;;;3.20;;
8958;SDS011;4514;49.476;8.484;2022-08-05T12:06:16;4.53;;;3.17;;
8958;SDS011;4514;49.476;8.484;2022-08-05T12:08:49;3.63;;;3.33;;
8958;SDS011;4514;49.476;8.484;2022-08-05T12:11:19;3.17;;;2.88;;
8958;SDS011;4514;49.476;8.484;2022-08-05T12:16:25;3.30;;;3.00;;
8958;SDS011;4514;49.476;8.484;2022-08-05T12:18:54;2.88;;;2.67;;
8958;SDS011;4514;49.476;8.484;2022-08-05T12:21:24;3.38;;;3.10;;
8958;SDS011;4514;49.476;8.484;2022-08-05T12:24:01;3.20;;;2.90;;
8958;SDS011;4514;49.476;8.484;2022-08-05T12:26:35;3.10;;;2.90;;
8958;SDS011;4514;49.476;8.484;2022-08-05T12:29:07;5.28;;;2.70;;
8958;SDS011;4514;49.476;8.484;2022-08-05T12:31:38;3.20;;;2.90;;
8958;SDS011;4514;49.476;8.484;2022-08-05T12:34:06;2.95;;;2.75;;
8958;SDS011;4514;49.476;8.484;2022-08-05T12:36:35;2.85;;;2.60;;
8958;SDS011;4514;49.476;8.484;2022-08-05T12:39:02;3.20;;;2.80;;
8958;SDS011;4514;49.476;8.484;2022-08-05T12:41:31;3.13;;;2.83;;
8958;SDS011;4514;49.476;8.484;2022-08-05T12:43:58;3.53;;;2.80;;
8958;SDS011;4514;49.476;8.484;2022-08-05T12:46:28;2.92;;;2.72;;
8958;SDS011;4514;49.476;8.484;2022-08-05T12:51:22;2.97;;;2.67;;
8958;SDS011;4514;49.476;8.484;2022-08-05T12:53:51;3.25;;;2.95;;
8958;SDS011;4514;49.476;8.484;2022-08-05T12:56:31;3.15;;;2.90;;
8958;SDS011;4514;49.476;8.484;2022-08-05T12:59:14;3.53;;;3.25;;
8958;SDS011;4514;49.476;8.484;2022-08-05T13:01:41;4.22;;;3.58;;
8958;SDS011;4514;49.476;8.484;2022-08-05T13:04:08;4.70;;;3.22;;
8958;SDS011;4514;49.476;8.484;2022-08-05T13:06:41;3.40;;;2.90;;
8958;SDS011;4514;49.476;8.484;2022-08-05T13:09:10;3.15;;;2.90;;
8958;SDS011;4514;49.476;8.484;2022-08-05T13:11:37;4.18;;;3.00;;
8958;SDS011;4514;49.476;8.484;2022-08-05T13:14:10;2.97;;;2.72;;
8958;SDS011;4514;49.476;8.484;2022-08-05T13:16:59;2.75;;;2.55;;
8958;SDS011;4514;49.476;8.484;2022-08-05T13:19:26;3.10;;;2.90;;
8958;SDS011;4514;49.476;8.484;2022-08-05T13:21:56;3.25;;;2.92;;
8958;SDS011;4514;49.476;8.484;2022-08-05T13:24:22;3.25;;;2.92;;
8958;SDS011;4514;49.476;8.484;2022-08-05T13:26:50;2.70;;;2.50;;
8958;SDS011;4514;49.476;8.484;2022-08-05T13:29:16;3.00;;;2.80;;
8958;SDS011;4514;49.476;8.484;2022-08-05T13:31:42;3.25;;;2.90;;
8958;SDS011;4514;49.476;8.484;2022-08-05T13:34:17;3.00;;;2.80;;
8958;SDS011;4514;49.476;8.484;2022-08-05T13:36:44;3.08;;;2.80;;
8958;SDS011;4514;49.476;8.484;2022-08-05T13:39:10;3.22;;;2.90;;
8958;SDS011;4514;49.476;8.484;2022-08-05T13:41:37;3.03;;;2.83;;
8958;SDS011;4514;49.476;8.484;2022-08-05T13:44:03;3.30;;;3.00;;
8958;SDS011;4514;49.476;8.484;2022-08-05T13:46:28;3.42;;;2.70;;
8958;SDS011;4514;49.476;8.484;2022-08-05T13:48:54;3.10;;;2.67;;
8958;SDS011;4514;49.476;8.484;2022-08-05T13:51:27;2.70;;;2.50;;
8958;SDS011;4514;49.476;8.484;2022-08-05T13:53:54;3.30;;;3.00;;
8958;SDS011;4514;49.476;8.484;2022-08-05T13:56:22;2.80;;;2.60;;
8958;SDS011;4514;49.476;8.484;2022-08-05T13:58:50;2.97;;;2.78;;
8958;SDS011;4514;49.476;8.484;2022-08-05T14:01:15;2.88;;;2.67;;
8958;SDS011;4514;49.476;8.484;2022-08-05T14:03:41;3.17;;;2.90;;
8958;SDS011;4514;49.476;8.484;2022-08-05T14:06:06;3.78;;;2.85;;
8958;SDS011;4514;49.476;8.484;2022-08-05T14:08:32;3.40;;;2.70;;
8958;SDS011;4514;49.476;8.484;2022-08-05T14:11:00;3.10;;;2.83;;
8958;SDS011;4514;49.476;8.484;2022-08-05T14:13:27;2.90;;;2.70;;
8958;SDS011;4514;49.476;8.484;2022-08-05T14:15:53;3.08;;;2.88;;
8958;SDS011;4514;49.476;8.484;2022-08-05T14:18:21;4.32;;;3.10;;
8958;SDS011;4514;49.476;8.484;2022-08-05T14:20:47;3.53;;;3.03;;
8958;SDS011;4514;49.476;8.484;2022-08-05T14:23:12;2.78;;;2.58;;
8958;SDS011;4514;49.476;8.484;2022-08-05T14:25:37;2.90;;;2.70;;
8958;SDS011;4514;49.476;8.484;2022-08-05T14:28:06;2.75;;;2.55;;
8958;SDS011;4514;49.476;8.484;2022-08-05T14:30:36;3.17;;;2.97;;
8958;SDS011;4514;49.476;8.484;2022-08-05T14:33:01;2.70;;;2.60;;
8958;SDS011;4514;49.476;8.484;2022-08-05T14:35:31;3.03;;;2.80;;
8958;SDS011;4514;49.476;8.484;2022-08-05T14:37:59;3.15;;;2.85;;
8958;SDS011;4514;49.476;8.484;2022-08-05T14:40:24;2.75;;;2.55;;
8958;SDS011;4514;49.476;8.484;2022-08-05T14:42:54;3.00;;;2.80;;
8958;SDS011;4514;49.476;8.484;2022-08-05T14:45:22;3.05;;;2.85;;
8958;SDS011;4514;49.476;8.484;2022-08-05T14:47:47;3.00;;;2.80;;
8958;SDS011;4514;49.476;8.484;2022-08-05T14:50:15;3.45;;;2.90;;
8958;SDS011;4514;49.476;8.484;2022-08-05T14:52:40;3.17;;;2.90;;
8958;SDS011;4514;49.476;8.484;2022-08-05T14:55:06;3.35;;;3.05;;
8958;SDS011;4514;49.476;8.484;2022-08-05T14:57:36;3.25;;;3.00;;
8958;SDS011;4514;49.476;8.484;2022-08-05T15:00:02;3.70;;;2.92;;
8958;SDS011;4514;49.476;8.484;2022-08-05T15:02:27;4.40;;;3.30;;
8958;SDS011;4514;49.476;8.484;2022-08-05T15:04:58;4.07;;;3.45;;
8958;SDS011;4514;49.476;8.484;2022-08-05T15:07:25;4.15;;;3.85;;
8958;SDS011;4514;49.476;8.484;2022-08-05T15:09:51;5.00;;;4.60;;
8958;SDS011;4514;49.476;8.484;2022-08-05T15:12:18;4.95;;;4.43;;
8958;SDS011;4514;49.476;8.484;2022-08-05T15:14:44;4.05;;;3.70;;
8958;SDS011;4514;49.476;8.484;2022-08-05T15:17:12;5.10;;;4.60;;
8958;SDS011;4514;49.476;8.484;2022-08-05T15:19:37;8.02;;;6.18;;
8958;SDS011;4514;49.476;8.484;2022-08-05T15:22:05;9.20;;;6.10;;
8958;SDS011;4514;49.476;8.484;2022-08-05T15:24:35;7.15;;;6.57;;
8958;SDS011;4514;49.476;8.484;2022-08-05T15:27:01;7.05;;;6.35;;
8958;SDS011;4514;49.476;8.484;2022-08-05T15:29:26;6.63;;;6.07;;
8958;SDS011;4514;49.476;8.484;2022-08-05T15:31:52;8.00;;;6.70;;
8958;SDS011;4514;49.476;8.484;2022-08-05T15:34:17;7.43;;;6.83;;
8958;SDS011;4514;49.476;8.484;2022-08-05T15:36:45;8.10;;;7.35;;
8958;SDS011;4514;49.476;8.484;2022-08-05T15:39:10;8.43;;;7.82;;
8958;SDS011;4514;49.476;8.484;2022-08-05T15:41:40;9.20;;;8.40;;
8958;SDS011;4514;49.476;8.484;2022-08-05T15:44:06;10.15;;;9.35;;
8958;SDS011;4514;49.476;8.484;2022-08-05T15:46:31;11.20;;;10.10;;
8958;SDS011;4514;49.476;8.484;2022-08-05T15:49:01;11.48;;;10.25;;
8958;SDS011;4514;49.476;8.484;2022-08-05T15:51:31;11.18;;;10.18;;
8958;SDS011;4514;49.476;8.484;2022-08-05T15:53:57;9.38;;;8.63;;
8958;SDS011;4514;49.476;8.484;2022-08-05T15:56:24;9.23;;;8.43;;
8958;SDS011;4514;49.476;8.484;2022-08-05T15:58:50;9.90;;;9.20;;
8958;SDS011;4514;49.476;8.484;2022-08-05T16:01:18;11.77;;;10.77;;
8958;SDS011;4514;49.476;8.484;2022-08-05T16:03:45;11.52;;;10.63;;
8958;SDS011;4514;49.476;8.484;2022-08-05T16:06:14;12.77;;;11.57;;
8958;SDS011;4514;49.476;8.484;2022-08-05T16:08:42;14.18;;;12.63;;
8958;SDS011;4514;49.476;8.484;2022-08-05T16:11:08;13.23;;;12.23;;
8958;SDS011;4514;49.476;8.484;2022-08-05T16:13:34;14.63;;;13.43;;
8958;SDS011;4514;49.476;8.484;2022-08-05T16:16:00;16.08;;;14.52;;